Time;durP1;ratioP1;P1;durP2;ratioP2;P2;SDS_P1;SDS_P2;PMS_P1;PMS_P2;Temp;Humidity;BMP_temperature;BMP_pressure;BME280_temperature;BME280_humidity;BME280_pressure;Samples;Min_cycle;Max_cycle;Signal;HPM_P1;HPM_P2
2022/03/12 00:01:35;;;;;;;24.20;15.88;;;;;;;-1.47;100.00;102583.69;4902057;29;20512;-74
2022/03/12 00:04:21;;;;;;;21.52;11.60;;;;;;;-1.59;100.00;102579.47;4902374;29;20535;-74
2022/03/12 00:07:11;;;;;;;19.83;11.25;;;;;;;-1.91;100.00;102574.97;4888179;29;20054;-75
2022/03/12 00:09:57;;;;;;;21.77;12.13;;;;;;;-1.81;100.00;102578.97;4902724;29;20406;-74
2022/03/12 00:12:43;;;;;;;27.85;12.80;;;;;;;-1.50;100.00;102575.78;4887804;29;20029;-75
2022/03/12 00:15:31;;;;;;;23.38;11.75;;;;;;;-1.47;100.00;102585.38;4901852;29;20039;-73
2022/03/12 00:18:19;;;;;;;28.48;12.18;;;;;;;-1.80;100.00;102578.19;4902681;29;20472;-74
2022/03/12 00:21:06;;;;;;;26.75;12.57;;;;;;;-1.77;100.00;102583.53;4902188;29;20450;-74
2022/03/12 00:23:53;;;;;;;25.90;14.98;;;;;;;-1.95;100.00;102577.22;4903049;29;20450;-73
2022/03/12 00:26:41;;;;;;;31.70;17.95;;;;;;;-1.78;100.00;102580.03;4902488;29;20365;-73
2022/03/12 00:29:27;;;;;;;26.13;14.15;;;;;;;-1.81;100.00;102589.25;4902978;29;20110;-74
2022/03/12 00:32:14;;;;;;;26.08;13.23;;;;;;;-1.47;100.00;102582.78;4902084;29;20031;-74
2022/03/12 00:35:00;;;;;;;20.85;12.65;;;;;;;-2.03;100.00;102576.75;4902681;29;20060;-75
2022/03/12 00:37:47;;;;;;;23.77;12.27;;;;;;;-1.61;100.00;102583.66;4902596;29;20030;-74
2022/03/12 00:40:37;;;;;;;26.08;13.93;;;;;;;-1.63;100.00;102582.66;4902187;29;20116;-74
2022/03/12 00:43:23;;;;;;;29.90;13.82;;;;;;;-1.43;100.00;102579.59;4901708;29;20036;-74
2022/03/12 00:46:09;;;;;;;28.98;13.90;;;;;;;-1.75;100.00;102575.09;4902592;29;20036;-75
2022/03/12 00:48:54;;;;;;;23.15;12.10;;;;;;;-1.76;100.00;102572.44;4901186;29;20492;-74
2022/03/12 00:51:41;;;;;;;26.95;12.77;;;;;;;-1.43;100.00;102577.03;4902701;29;20071;-74
2022/03/12 00:54:27;;;;;;;27.42;14.10;;;;;;;-1.53;100.00;102567.03;4901786;29;20060;-74
2022/03/12 00:57:13;;;;;;;22.10;11.80;;;;;;;-1.72;100.00;102567.56;4902125;29;20123;-73
2022/03/12 00:59:58;;;;;;;23.58;12.27;;;;;;;-1.60;100.00;102565.72;4902486;29;20039;-74
2022/03/12 01:02:45;;;;;;;24.42;13.40;;;;;;;-1.83;100.00;102560.00;4902173;29;20036;-74
2022/03/12 01:05:49;;;;;;;23.98;12.75;;;;;;;-1.45;100.00;102565.78;4900769;29;20132;-73
2022/03/12 01:08:36;;;;;;;22.38;12.13;;;;;;;-1.65;100.00;102564.56;4902307;29;20028;-73
2022/03/12 01:11:21;;;;;;;23.05;12.30;;;;;;;-1.58;100.00;102559.03;4902896;29;20106;-74
2022/03/12 01:14:08;;;;;;;20.90;11.73;;;;;;;-1.59;100.00;102564.97;4906938;29;20104;-73
2022/03/12 01:16:58;;;;;;;22.50;12.13;;;;;;;-1.73;100.00;102565.78;4902250;29;20465;-74
2022/03/12 01:19:44;;;;;;;21.08;11.82;;;;;;;-1.54;100.00;102567.78;4900802;29;20481;-74
2022/03/12 01:22:35;;;;;;;19.08;11.82;;;;;;;-1.63;100.00;102573.28;4874774;29;20041;-74
2022/03/12 01:25:21;;;;;;;24.52;12.18;;;;;;;-1.93;100.00;102573.09;4900093;29;20040;-73
2022/03/12 01:28:09;;;;;;;21.85;11.35;;;;;;;-1.78;100.00;102569.78;4901613;29;20185;-74
2022/03/12 01:30:55;;;;;;;23.00;12.68;;;;;;;-1.65;100.00;102569.72;4901490;29;20102;-73
2022/03/12 01:33:41;;;;;;;21.13;12.07;;;;;;;-1.32;100.00;102571.72;4901693;29;20092;-74
2022/03/12 01:36:27;;;;;;;20.77;12.65;;;;;;;-1.77;100.00;102565.53;4901290;29;20028;-74
2022/03/12 01:39:12;;;;;;;24.80;11.57;;;;;;;-1.37;100.00;102570.56;4901308;29;20025;-74
2022/03/12 01:41:58;;;;;;;23.92;12.05;;;;;;;-1.26;100.00;102569.53;4901562;29;20112;-75
2022/03/12 01:44:44;;;;;;;22.60;11.60;;;;;;;-1.22;100.00;102578.31;4886900;29;20036;-74
2022/03/12 01:47:30;;;;;;;22.17;13.40;;;;;;;-1.15;100.00;102575.31;4900587;29;20036;-75
2022/03/12 01:50:21;;;;;;;18.23;11.00;;;;;;;-1.34;100.00;102578.47;4901220;29;20029;-74
2022/03/12 01:53:09;;;;;;;20.25;11.68;;;;;;;-1.32;100.00;102579.44;4900234;29;20398;-74
2022/03/12 01:55:56;;;;;;;21.98;12.88;;;;;;;-1.49;100.00;102579.25;4900508;29;20478;-75
2022/03/12 01:58:47;;;;;;;24.33;12.20;;;;;;;-1.33;100.00;102575.09;4900906;29;20460;-74
2022/03/12 02:01:33;;;;;;;20.83;12.35;;;;;;;-1.32;100.00;102583.72;4901014;29;20028;-74
2022/03/12 02:04:20;;;;;;;19.35;11.65;;;;;;;-1.37;100.00;102582.56;4900769;29;20052;-74
2022/03/12 02:07:07;;;;;;;23.27;12.95;;;;;;;-1.86;100.00;102580.34;4901185;29;20028;-74
2022/03/12 02:09:52;;;;;;;21.98;12.20;;;;;;;-1.73;100.00;102581.22;4900343;29;20032;-74
2022/03/12 02:12:38;;;;;;;23.80;12.27;;;;;;;-1.72;100.00;102580.41;4901045;29;20084;-74
2022/03/12 02:15:24;;;;;;;22.65;13.27;;;;;;;-1.74;100.00;102582.00;4901104;29;20362;-74
2022/03/12 02:18:13;;;;;;;21.63;12.88;;;;;;;-1.64;100.00;102579.19;4900511;29;20032;-75
2022/03/12 02:20:59;;;;;;;23.67;12.70;;;;;;;-1.88;100.00;102584.53;4899710;29;20076;-74
2022/03/12 02:23:49;;;;;;;25.73;13.52;;;;;;;-1.68;100.00;102578.94;4900333;29;20035;-74
2022/03/12 02:26:36;;;;;;;21.65;11.77;;;;;;;-1.56;100.00;102583.13;4900709;29;20028;-75
2022/03/12 02:29:24;;;;;;;21.95;11.63;;;;;;;-1.56;100.00;102587.38;4900164;29;20119;-73
2022/03/12 02:32:11;;;;;;;18.15;11.05;;;;;;;-1.96;100.00;102583.16;4900339;29;20059;-74
2022/03/12 02:34:58;;;;;;;20.48;11.85;;;;;;;-2.18;100.00;102586.06;4900679;29;20480;-74
2022/03/12 02:37:49;;;;;;;22.23;11.25;;;;;;;-1.79;100.00;102582.53;4900022;29;20032;-74
2022/03/12 02:40:35;;;;;;;21.02;11.52;;;;;;;-1.94;100.00;102577.34;4900448;29;20024;-74
2022/03/12 02:43:29;;;;;;;19.15;10.98;;;;;;;-1.94;100.00;102579.00;4899856;29;20032;-74
2022/03/12 02:46:15;;;;;;;19.45;11.07;;;;;;;-2.22;100.00;102581.53;4900203;29;20043;-73
2022/03/12 02:49:02;;;;;;;19.80;11.68;;;;;;;-2.36;100.00;102595.19;4900419;29;20044;-73
2022/03/12 02:51:48;;;;;;;19.90;11.80;;;;;;;-2.27;100.00;102594.88;4900214;29;20410;-74
2022/03/12 02:54:34;;;;;;;22.10;11.95;;;;;;;-1.89;100.00;102595.59;4899156;29;20378;-73
2022/03/12 02:57:26;;;;;;;22.25;12.77;;;;;;;-1.55;100.00;102599.44;4885448;29;20458;-74
2022/03/12 03:00:13;;;;;;;23.80;12.63;;;;;;;-1.83;100.00;102595.97;4899285;29;20028;-73
2022/03/12 03:03:01;;;;;;;21.10;12.35;;;;;;;-1.96;100.00;102602.03;4899486;29;20028;-74
2022/03/12 03:05:47;;;;;;;19.42;11.70;;;;;;;-1.90;100.00;102601.50;4900259;29;20045;-74
2022/03/12 03:08:35;;;;;;;21.05;11.85;;;;;;;-1.80;100.00;102604.72;4899436;29;20037;-74
2022/03/12 03:11:21;;;;;;;23.02;12.20;;;;;;;-1.60;100.00;102605.97;4899921;29;20056;-73
2022/03/12 03:14:11;;;;;;;21.50;12.05;;;;;;;-1.97;100.00;102605.38;4898773;29;20032;-75
2022/03/12 03:16:59;;;;;;;20.58;11.65;;;;;;;-1.97;100.00;102607.94;4885417;29;20457;-73
2022/03/12 03:19:46;;;;;;;19.77;11.70;;;;;;;-1.85;100.00;102603.56;4900190;29;20119;-73
2022/03/12 03:22:31;;;;;;;21.05;12.40;;;;;;;-1.62;100.00;102605.88;4900274;29;20127;-74
2022/03/12 03:25:17;;;;;;;21.58;11.73;;;;;;;-1.63;100.00;102605.78;4899404;29;20377;-74
2022/03/12 03:28:05;;;;;;;21.88;13.45;;;;;;;-1.90;100.00;102604.97;4899451;29;20107;-73
2022/03/12 03:30:51;;;;;;;28.65;16.58;;;;;;;-2.41;100.00;102604.25;4885111;29;20051;-75
2022/03/12 03:33:37;;;;;;;33.53;18.63;;;;;;;-2.69;100.00;102605.81;4886375;29;20048;-74
2022/03/12 03:36:23;;;;;;;34.47;18.70;;;;;;;-1.98;100.00;102605.28;4899751;29;20032;-73
2022/03/12 03:39:09;;;;;;;32.38;18.02;;;;;;;-1.86;100.00;102606.94;4899388;29;20024;-74
2022/03/12 03:41:55;;;;;;;30.92;17.13;;;;;;;-1.66;100.00;102613.28;4899386;29;20025;-74
2022/03/12 03:44:40;;;;;;;31.35;17.45;;;;;;;-2.04;100.00;102607.47;4899216;29;20474;-73
2022/03/12 03:47:26;;;;;;;32.53;18.20;;;;;;;-2.30;100.00;102613.53;4899675;29;20032;-73
2022/03/12 03:50:12;;;;;;;32.70;17.77;;;;;;;-2.67;100.00;102606.81;4903339;29;20029;-74
2022/03/12 03:53:03;;;;;;;34.55;19.33;;;;;;;-2.56;100.00;102607.53;4889540;29;20028;-74
2022/03/12 03:55:51;;;;;;;32.60;17.75;;;;;;;-2.11;100.00;102616.47;4888362;29;20032;-74
2022/03/12 03:58:37;;;;;;;28.83;17.23;;;;;;;-2.06;100.00;102609.94;4903721;29;20534;-74
2022/03/12 04:01:23;;;;;;;28.45;15.95;;;;;;;-1.88;100.00;102623.06;4903079;29;20029;-73
2022/03/12 04:04:12;;;;;;;25.20;15.90;;;;;;;-1.79;100.00;102621.94;4901044;29;20052;-74
2022/03/12 04:06:59;;;;;;;29.73;15.80;;;;;;;-1.97;100.00;102625.06;4902124;29;20028;-74
2022/03/12 04:09:45;;;;;;;27.48;14.80;;;;;;;-2.14;100.00;102628.22;4902517;29;20028;-75
2022/03/12 04:12:30;;;;;;;25.42;14.82;;;;;;;-2.65;100.00;102630.88;4902568;29;20115;-73
2022/03/12 04:15:17;;;;;;;28.88;14.90;;;;;;;-2.87;100.00;102635.41;4902882;29;20059;-73
2022/03/12 04:18:05;;;;;;;25.90;13.98;;;;;;;-2.89;100.00;102636.09;4902778;29;20032;-74
2022/03/12 04:20:51;;;;;;;23.20;14.13;;;;;;;-2.67;100.00;102627.34;4901519;29;20040;-73
2022/03/12 04:23:37;;;;;;;20.88;12.68;;;;;;;-2.89;100.00;102630.97;4902558;29;20029;-74
2022/03/12 04:26:23;;;;;;;24.25;14.18;;;;;;;-2.57;100.00;102639.97;4902784;29;20035;-74
2022/03/12 04:29:09;;;;;;;21.90;13.00;;;;;;;-2.71;100.00;102629.59;4904014;29;20044;-74
2022/03/12 04:31:55;;;;;;;31.88;16.13;;;;;;;-2.87;100.00;102637.97;4902515;29;20038;-75
2022/03/12 04:34:40;;;;;;;24.60;14.10;;;;;;;-2.94;100.00;102637.47;4902711;29;20028;-74
2022/03/12 04:37:26;;;;;;;26.75;13.85;;;;;;;-3.03;100.00;102642.84;4887797;29;20029;-74
2022/03/12 04:40:17;;;;;;;29.75;15.27;;;;;;;-3.08;100.00;102644.22;4902038;29;20058;-74
2022/03/12 04:43:04;;;;;;;30.80;16.85;;;;;;;-3.12;100.00;102639.69;4901929;29;20096;-73
2022/03/12 04:45:50;;;;;;;29.85;16.33;;;;;;;-2.85;100.00;102650.91;4901451;29;20354;-75
2022/03/12 04:48:36;;;;;;;27.83;15.32;;;;;;;-2.94;100.00;102646.03;4902368;29;20056;-73
2022/03/12 04:51:22;;;;;;;25.02;14.80;;;;;;;-3.48;100.00;102646.53;4901745;29;20354;-73
2022/03/12 04:54:08;;;;;;;29.38;15.93;;;;;;;-3.13;100.00;102654.94;4902188;29;20029;-73
2022/03/12 04:56:55;;;;;;;27.10;15.45;;;;;;;-3.32;100.00;102657.03;4901107;29;20056;-74
2022/03/12 04:59:42;;;;;;;25.27;14.07;;;;;;;-3.34;100.00;102654.38;4900831;29;20357;-73
2022/03/12 05:02:28;;;;;;;28.17;15.13;;;;;;;-3.09;100.00;102654.38;4901417;29;20073;-74
2022/03/12 05:05:15;;;;;;;25.52;14.07;;;;;;;-3.29;100.00;102650.47;4901452;29;20540;-76
2022/03/12 05:08:01;;;;;;;28.58;15.60;;;;;;;-3.09;100.00;102646.69;4901130;29;20115;-75
2022/03/12 05:10:49;;;;;;;26.15;14.50;;;;;;;-3.10;100.00;102657.72;4902182;29;20048;-74
2022/03/12 05:13:35;;;;;;;27.25;14.73;;;;;;;-2.97;100.00;102658.63;4887190;29;20033;-75
2022/03/12 05:16:22;;;;;;;22.83;12.93;;;;;;;-2.74;100.00;102667.88;4902437;29;20032;-75
2022/03/12 05:19:08;;;;;;;22.52;12.93;;;;;;;-2.65;100.00;102669.38;4901852;29;20036;-75
2022/03/12 05:21:53;;;;;;;24.20;13.25;;;;;;;-2.78;100.00;102663.34;4901662;29;20123;-74
2022/03/12 05:24:39;;;;;;;25.67;12.95;;;;;;;-2.67;100.00;102667.50;4901924;29;20024;-74
2022/03/12 05:27:26;;;;;;;20.23;12.40;;;;;;;-2.32;100.00;102670.69;4900579;29;20473;-73
2022/03/12 05:30:13;;;;;;;21.60;11.45;;;;;;;-2.95;100.00;102666.44;4901373;29;20060;-74
2022/03/12 05:33:00;;;;;;;21.83;12.02;;;;;;;-2.80;100.00;102667.47;4900644;29;20035;-74
2022/03/12 05:35:48;;;;;;;21.20;12.75;;;;;;;-2.43;100.00;102674.22;4900934;29;20068;-74
2022/03/12 05:38:37;;;;;;;22.23;12.05;;;;;;;-2.55;100.00;102670.84;4901272;29;20088;-74
2022/03/12 05:41:23;;;;;;;23.13;12.55;;;;;;;-2.79;100.00;102679.50;4900509;29;20123;-74
2022/03/12 05:44:14;;;;;;;22.23;11.55;;;;;;;-2.60;100.00;102682.50;4899936;29;20028;-74
2022/03/12 05:47:03;;;;;;;21.17;11.98;;;;;;;-2.72;100.00;102681.69;4901377;29;20025;-74
2022/03/12 05:49:49;;;;;;;19.98;12.25;;;;;;;-2.31;100.00;102688.75;4901446;29;20454;-73
2022/03/12 05:52:39;;;;;;;21.23;12.52;;;;;;;-2.38;100.00;102684.00;4900781;29;20064;-74
2022/03/12 05:55:25;;;;;;;23.23;12.25;;;;;;;-2.13;100.00;102679.66;4887099;29;20039;-74
2022/03/12 05:58:12;;;;;;;18.08;11.40;;;;;;;-2.17;100.00;102679.41;4901095;29;20315;-74
2022/03/12 06:00:58;;;;;;;22.33;12.32;;;;;;;-2.06;100.00;102691.22;4901287;29;20040;-74
2022/03/12 06:03:43;;;;;;;20.08;11.55;;;;;;;-2.44;100.00;102688.75;4900482;29;20080;-74
2022/03/12 06:06:30;;;;;;;19.10;12.05;;;;;;;-2.20;100.00;102692.94;4887874;29;20036;-75
2022/03/12 06:09:16;;;;;;;20.83;12.00;;;;;;;-1.86;100.00;102691.72;4899665;29;20041;-74
2022/03/12 06:12:02;;;;;;;20.42;12.25;;;;;;;-1.78;100.00;102697.31;4901113;29;20036;-74
2022/03/12 06:14:51;;;;;;;22.05;11.93;;;;;;;-1.83;100.00;102701.28;4899724;29;20028;-75
2022/03/12 06:17:38;;;;;;;20.58;11.90;;;;;;;-1.15;100.00;102711.59;4901421;29;20040;-74
2022/03/12 06:20:24;;;;;;;21.67;11.88;;;;;;;-1.04;100.00;102700.28;4900673;29;20454;-73
2022/03/12 06:23:09;;;;;;;21.92;12.55;;;;;;;-1.13;100.00;102703.19;4900363;29;20040;-74
2022/03/12 06:25:56;;;;;;;26.80;14.48;;;;;;;-1.52;100.00;102707.56;4900564;29;20028;-74
2022/03/12 06:28:43;;;;;;;20.02;13.00;;;;;;;-1.16;100.00;102710.69;4899468;29;20041;-74
2022/03/12 06:31:31;;;;;;;21.83;12.43;;;;;;;-1.11;100.00;102718.72;4899878;29;20024;-73
2022/03/12 06:34:17;;;;;;;19.63;11.45;;;;;;;-1.17;100.00;102718.31;4900679;29;20071;-74
2022/03/12 06:37:04;;;;;;;20.05;11.65;;;;;;;-0.59;100.00;102721.91;4900186;29;20039;-76
2022/03/12 06:39:50;;;;;;;19.90;12.07;;;;;;;-0.47;100.00;102722.63;4900401;29;20032;-74
2022/03/12 06:42:38;;;;;;;20.60;12.20;;;;;;;-0.89;100.00;102721.75;4900031;29;20399;-75
2022/03/12 06:45:24;;;;;;;24.08;12.60;;;;;;;-0.59;100.00;102731.34;4899747;29;20044;-75
2022/03/12 06:48:10;;;;;;;19.63;11.80;;;;;;;-0.86;100.00;102728.00;4900179;29;20123;-74
2022/03/12 06:50:56;;;;;;;21.55;12.75;;;;;;;-0.55;100.00;102735.88;4899581;29;20024;-74
2022/03/12 06:53:42;;;;;;;18.67;12.20;;;;;;;-0.34;100.00;102737.09;4899047;29;20039;-74
2022/03/12 06:56:28;;;;;;;19.58;11.68;;;;;;;-0.31;100.00;102734.72;4899614;29;20024;-76
2022/03/12 06:59:14;;;;;;;20.00;12.30;;;;;;;-0.08;100.00;102734.38;4899995;29;20060;-76
2022/03/12 07:02:00;;;;;;;20.15;12.63;;;;;;;-0.20;100.00;102738.81;4899762;29;20123;-75
2022/03/12 07:04:45;;;;;;;22.27;12.85;;;;;;;0.04;100.00;102735.94;4900024;29;20111;-74
2022/03/12 07:07:31;;;;;;;24.75;12.43;;;;;;;-0.02;100.00;102747.59;4899614;29;20033;-74
2022/03/12 07:10:18;;;;;;;22.70;13.10;;;;;;;0.49;100.00;102742.78;4900592;29;20039;-74
2022/03/12 07:13:04;;;;;;;22.67;12.40;;;;;;;0.66;100.00;102746.25;4900261;29;20033;-74
2022/03/12 07:15:50;;;;;;;24.85;13.82;;;;;;;0.37;100.00;102747.25;4900622;29;20028;-76
2022/03/12 07:18:35;;;;;;;22.25;12.20;;;;;;;0.58;100.00;102753.59;4900259;29;20036;-75
2022/03/12 07:21:21;;;;;;;20.33;12.52;;;;;;;0.37;100.00;102761.81;4900109;29;20033;-75
2022/03/12 07:24:07;;;;;;;20.23;11.65;;;;;;;0.43;100.00;102762.19;4904254;29;20033;-74
2022/03/12 07:26:53;;;;;;;19.85;12.30;;;;;;;0.56;100.00;102762.91;4903870;29;20024;-74
2022/03/12 07:29:39;;;;;;;26.48;14.57;;;;;;;0.99;100.00;102769.59;4903833;29;20060;-75
2022/03/12 07:32:26;;;;;;;19.55;12.48;;;;;;;0.81;100.00;102771.22;4903849;29;20346;-74
2022/03/12 07:35:15;;;;;;;20.02;12.35;;;;;;;0.82;100.00;102772.09;4903886;29;20406;-75
2022/03/12 07:38:01;;;;;;;19.10;11.85;;;;;;;0.13;100.00;102770.75;4903407;29;20033;-74
2022/03/12 07:40:47;;;;;;;23.75;12.02;;;;;;;0.47;100.00;102769.28;4903441;29;20342;-74
2022/03/12 07:43:33;;;;;;;22.98;12.95;;;;;;;0.54;100.00;102755.91;4903045;29;20123;-74
2022/03/12 07:46:19;;;;;;;23.50;12.73;;;;;;;0.62;100.00;102760.69;4904314;29;20036;-72
2022/03/12 07:49:05;;;;;;;23.70;14.13;;;;;;;0.75;100.00;102759.66;4904106;29;20041;-74
2022/03/12 07:51:51;;;;;;;21.95;13.18;;;;;;;1.19;100.00;102763.81;4903644;29;20438;-73
2022/03/12 07:54:38;;;;;;;26.33;16.08;;;;;;;1.32;100.00;102761.06;4903199;29;20047;-75
2022/03/12 07:57:28;;;;;;;26.65;14.15;;;;;;;0.73;100.00;102757.00;4903713;29;20370;-75
2022/03/12 08:00:15;;;;;;;23.63;13.45;;;;;;;0.75;100.00;102757.06;4903013;29;20035;-75
2022/03/12 08:03:01;;;;;;;20.85;13.20;;;;;;;1.55;100.00;102770.88;4903200;29;20414;-74
2022/03/12 08:05:46;;;;;;;22.60;14.15;;;;;;;1.37;100.00;102763.88;4903325;29;20057;-73
2022/03/12 08:08:33;;;;;;;23.67;13.40;;;;;;;0.98;100.00;102773.00;4903146;29;20033;-74
2022/03/12 08:11:25;;;;;;;23.98;13.50;;;;;;;1.07;100.00;102764.84;4903742;29;20053;-74
2022/03/12 08:14:16;;;;;;;20.00;12.98;;;;;;;1.48;100.00;102771.38;4902733;29;20441;-74
2022/03/12 08:17:02;;;;;;;19.60;12.00;;;;;;;1.44;100.00;102766.00;4903153;29;20558;-74
2022/03/12 08:19:48;;;;;;;22.80;12.32;;;;;;;1.70;100.00;102770.78;4902571;29;20043;-75
2022/03/12 08:22:39;;;;;;;22.40;12.40;;;;;;;1.61;100.00;102768.59;4902948;29;20067;-74
2022/03/12 08:25:24;;;;;;;22.35;12.48;;;;;;;1.33;100.00;102775.72;4901523;29;20043;-75
2022/03/12 08:28:10;;;;;;;20.15;12.75;;;;;;;1.19;100.00;102771.56;4902264;29;20040;-75
2022/03/12 08:30:56;;;;;;;19.50;12.13;;;;;;;1.16;100.00;102767.94;4902583;29;20044;-74
2022/03/12 08:33:43;;;;;;;21.73;13.52;;;;;;;0.99;100.00;102769.59;4902885;29;20466;-75
2022/03/12 08:36:29;;;;;;;23.95;13.38;;;;;;;1.59;100.00;102777.09;4889421;29;20437;-74
2022/03/12 08:39:15;;;;;;;24.42;13.70;;;;;;;2.26;100.00;102777.97;4903468;29;20044;-74
2022/03/12 08:42:01;;;;;;;22.13;13.23;;;;;;;2.51;100.00;102767.97;4902906;29;20128;-76
2022/03/12 08:44:47;;;;;;;23.33;14.07;;;;;;;2.00;100.00;102768.03;4902455;29;20033;-74
2022/03/12 08:47:33;;;;;;;22.92;14.23;;;;;;;2.04;100.00;102766.47;4902504;29;20033;-74
2022/03/12 08:50:19;;;;;;;23.65;13.48;;;;;;;2.20;100.00;102771.56;4888028;29;20047;-74
2022/03/12 08:53:05;;;;;;;21.67;13.18;;;;;;;1.49;100.00;102767.97;4902995;29;20040;-74
2022/03/12 08:55:51;;;;;;;25.60;13.43;;;;;;;1.67;100.00;102765.44;4902901;29;20417;-74
2022/03/12 08:58:39;;;;;;;25.15;14.98;;;;;;;2.00;100.00;102762.84;4902466;29;20047;-74
2022/03/12 09:01:25;;;;;;;25.45;15.10;;;;;;;1.77;100.00;102755.66;4901964;29;20473;-75
2022/03/12 09:04:12;;;;;;;23.48;13.02;;;;;;;1.87;100.00;102763.06;4901137;29;20134;-74
2022/03/12 09:06:57;;;;;;;21.85;12.95;;;;;;;1.75;100.00;102752.13;4901288;29;20449;-74
2022/03/12 09:09:43;;;;;;;19.42;12.60;;;;;;;1.67;100.00;102752.53;4902299;29;20037;-74
2022/03/12 09:12:29;;;;;;;24.15;13.30;;;;;;;1.94;100.00;102746.16;4902890;29;20353;-74
2022/03/12 09:15:18;;;;;;;20.30;12.00;;;;;;;2.02;100.00;102742.25;4901563;29;20093;-75
2022/03/12 09:18:03;;;;;;;19.77;11.63;;;;;;;2.69;100.00;102744.66;4902657;29;20039;-75
2022/03/12 09:20:50;;;;;;;19.20;12.20;;;;;;;2.74;100.00;102750.94;4901023;29;20024;-75
2022/03/12 09:23:36;;;;;;;20.05;11.07;;;;;;;3.05;100.00;102752.38;4901766;29;20037;-75
2022/03/12 09:26:22;;;;;;;20.40;11.30;;;;;;;2.93;100.00;102744.06;4887075;29;20537;-73
2022/03/12 09:29:08;;;;;;;20.88;12.50;;;;;;;3.74;100.00;102732.13;4902586;29;20097;-75
2022/03/12 09:31:54;;;;;;;20.38;11.35;;;;;;;4.02;100.00;102740.22;4900428;29;20398;-74
2022/03/12 09:34:40;;;;;;;18.88;11.65;;;;;;;4.45;100.00;102730.75;4901195;29;20051;-75
2022/03/12 09:37:26;;;;;;;16.50;9.55;;;;;;;3.60;98.81;102741.03;4901285;29;20032;-74
2022/03/12 09:40:15;;;;;;;16.33;9.35;;;;;;;2.63;92.70;102737.50;4902005;29;20100;-74
2022/03/12 09:43:02;;;;;;;11.93;7.97;;;;;;;3.42;91.85;102740.25;4902048;29;20028;-74
2022/03/12 09:45:48;;;;;;;16.48;8.80;;;;;;;3.66;88.77;102741.28;4900911;29;20032;-75
2022/03/12 09:48:34;;;;;;;12.02;8.40;;;;;;;3.80;90.40;102724.63;4902500;29;20445;-75
2022/03/12 09:51:21;;;;;;;17.02;9.50;;;;;;;3.53;90.35;102733.81;4901475;29;20025;-75
2022/03/12 09:54:07;;;;;;;13.05;8.85;;;;;;;2.87;88.00;102740.31;4901307;29;20043;-74
2022/03/12 09:56:52;;;;;;;14.77;8.80;;;;;;;2.98;88.88;102729.63;4900014;29;20129;-74
2022/03/12 09:59:38;;;;;;;13.20;9.55;;;;;;;3.02;85.32;102734.13;4901675;29;20457;-74
2022/03/12 10:02:24;;;;;;;11.50;8.00;;;;;;;2.97;79.00;102725.25;4901511;29;20115;-75
2022/03/12 10:05:16;;;;;;;12.65;7.68;;;;;;;2.58;84.37;102720.84;4900044;29;20454;-74
2022/03/12 10:08:02;;;;;;;12.13;7.47;;;;;;;3.05;81.92;102720.44;4900499;29;20033;-74
2022/03/12 10:10:49;;;;;;;13.20;8.40;;;;;;;3.14;82.50;102726.91;4900952;29;20028;-74
2022/03/12 10:13:35;;;;;;;14.13;9.00;;;;;;;3.04;83.67;102719.56;4899769;29;20132;-74
2022/03/12 10:16:21;;;;;;;18.45;11.65;;;;;;;3.64;85.24;102726.50;4902267;29;20039;-74
2022/03/12 10:19:07;;;;;;;14.68;8.20;;;;;;;3.95;82.62;102707.09;4900304;29;20041;-74
2022/03/12 10:21:54;;;;;;;11.68;7.47;;;;;;;3.85;76.44;102715.31;4887977;29;20028;-75
2022/03/12 10:24:40;;;;;;;13.20;8.88;;;;;;;4.18;76.58;102713.22;4901234;29;20032;-75
2022/03/12 10:27:26;;;;;;;12.85;7.68;;;;;;;4.18;78.09;102708.91;4900615;29;20033;-74
2022/03/12 10:30:12;;;;;;;12.60;7.50;;;;;;;3.83;76.18;102705.72;4900917;29;20028;-75
2022/03/12 10:32:58;;;;;;;12.85;8.40;;;;;;;3.70;77.62;102706.03;4899903;29;20099;-75
2022/03/12 10:35:44;;;;;;;11.68;7.20;;;;;;;4.56;74.42;102707.81;4900889;29;20046;-74
2022/03/12 10:38:37;;;;;;;9.85;6.70;;;;;;;4.49;70.95;102706.69;4901490;29;20111;-73
2022/03/12 10:41:28;;;;;;;12.43;7.10;;;;;;;4.05;68.29;102706.66;4900940;29;20365;-74
2022/03/12 10:44:14;;;;;;;12.68;8.07;;;;;;;4.03;72.06;102702.22;4900814;29;20041;-74
2022/03/12 10:47:00;;;;;;;17.40;9.15;;;;;;;3.57;74.05;102704.63;4900956;29;20078;-74
2022/03/12 10:50:04;;;;;;;13.63;7.95;;;;;;;3.77;77.49;102701.16;4899938;29;20033;-75
2022/03/12 10:52:53;;;;;;;12.88;7.85;;;;;;;4.57;72.64;102692.31;4900268;29;20040;-74
2022/03/12 10:55:41;;;;;;;14.27;8.68;;;;;;;4.12;71.69;102687.94;4900007;29;20385;-74
2022/03/12 10:58:28;;;;;;;15.68;8.68;;;;;;;4.26;69.30;102686.75;4899500;29;20032;-74
2022/03/12 11:01:23;;;;;;;15.88;8.30;;;;;;;5.21;67.48;102677.34;4900337;29;20036;-75
2022/03/12 11:04:23;;;;;;;16.05;8.23;;;;;;;5.27;64.58;102678.44;4899823;29;20083;-75
2022/03/12 11:07:27;;;;;;;15.07;9.00;;;;;;;5.02;70.56;102675.81;4899720;29;20380;-74
2022/03/12 11:10:23;;;;;;;13.07;8.48;;;;;;;4.97;72.39;102668.69;4900784;29;20033;-75
2022/03/12 11:13:11;;;;;;;13.57;8.48;;;;;;;5.20;68.54;102663.47;4900284;29;20465;-73
2022/03/12 11:16:17;;;;;;;16.17;9.68;;;;;;;4.59;66.70;102658.63;4899849;29;20048;-74
2022/03/12 11:19:10;;;;;;;15.98;9.57;;;;;;;4.53;71.09;102669.66;4900039;29;20080;-75
2022/03/12 11:21:56;;;;;;;15.35;9.65;;;;;;;4.75;70.37;102663.56;4899760;29;20032;-75
2022/03/12 11:24:53;;;;;;;12.57;8.68;;;;;;;5.03;66.88;102656.78;4901260;29;20107;-73
2022/03/12 11:27:38;;;;;;;11.90;8.18;;;;;;;5.28;66.80;102654.22;4900633;29;20349;-74
2022/03/12 11:30:24;;;;;;;17.08;10.45;;;;;;;5.76;61.36;102646.31;4900574;29;20131;-74
2022/03/12 11:33:10;;;;;;;12.50;7.68;;;;;;;4.91;60.06;102645.09;4899404;29;20461;-75
2022/03/12 11:36:09;;;;;;;13.95;8.90;;;;;;;5.07;58.97;102635.28;4900599;29;20044;-74
2022/03/12 11:38:54;;;;;;;13.13;8.05;;;;;;;5.73;61.56;102633.19;4900469;29;20469;-74
2022/03/12 11:41:40;;;;;;;12.63;8.02;;;;;;;5.53;59.00;102629.06;4886183;29;20418;-74
2022/03/12 11:44:29;;;;;;;14.35;8.93;;;;;;;5.42;60.39;102628.72;4899886;29;20120;-74
2022/03/12 11:47:17;;;;;;;12.57;7.70;;;;;;;5.98;59.13;102633.22;4886608;29;20032;-73
2022/03/12 11:50:05;;;;;;;12.55;8.50;;;;;;;5.76;59.15;102629.00;4901012;29;20134;-75
2022/03/12 11:52:52;;;;;;;16.48;9.38;;;;;;;5.21;59.55;102635.78;4900324;29;20446;-74
2022/03/12 11:55:38;;;;;;;17.45;9.57;;;;;;;4.69;58.80;102634.75;4899900;29;20036;-74
2022/03/12 11:58:24;;;;;;;19.35;9.55;;;;;;;4.46;58.78;102633.91;4899816;29;20060;-75
2022/03/12 12:01:11;;;;;;;14.90;8.68;;;;;;;4.67;57.67;102626.03;4899910;29;20044;-74
2022/03/12 12:03:57;;;;;;;12.38;7.75;;;;;;;5.36;56.16;102618.97;4899884;29;20056;-75
2022/03/12 12:06:43;;;;;;;16.98;8.93;;;;;;;5.18;55.90;102614.88;4900633;29;20132;-75
2022/03/12 12:09:30;;;;;;;15.93;9.80;;;;;;;4.92;57.15;102623.50;4902228;29;20107;-75
2022/03/12 12:12:16;;;;;;;13.32;7.90;;;;;;;5.67;56.90;102618.31;4903810;29;20036;-75
2022/03/12 12:15:05;;;;;;;12.05;8.05;;;;;;;5.98;54.86;102621.06;4902740;29;20048;-76
2022/03/12 12:17:51;;;;;;;11.55;7.00;;;;;;;5.69;55.13;102614.03;4902756;29;20040;-75
2022/03/12 12:20:38;;;;;;;12.20;8.07;;;;;;;4.90;53.26;102623.44;4902273;29;20043;-74
2022/03/12 12:23:24;;;;;;;13.52;7.70;;;;;;;4.69;53.82;102621.78;4902478;29;20062;-75
2022/03/12 12:26:11;;;;;;;13.10;7.57;;;;;;;5.12;53.55;102623.38;4903053;29;20115;-75
2022/03/12 12:28:57;;;;;;;14.18;8.23;;;;;;;5.06;53.03;102614.44;4903500;29;20032;-75
2022/03/12 12:31:45;;;;;;;14.43;8.77;;;;;;;4.98;54.80;102623.69;4902416;29;20028;-76
2022/03/12 12:34:31;;;;;;;12.35;8.20;;;;;;;4.81;54.60;102615.31;4903126;29;20167;-76
2022/03/12 12:37:17;;;;;;;14.23;7.28;;;;;;;4.72;54.62;102621.88;4903152;29;20099;-74
2022/03/12 12:40:16;;;;;;;12.68;7.95;;;;;;;5.33;53.32;102621.50;4903420;29;20039;-75